Time;durP1;ratioP1;P1;durP2;ratioP2;P2;SDS_P1;SDS_P2;PMS_P1;PMS_P2;Temp;Humidity;BMP_temperature;BMP_pressure;BME280_temperature;BME280_humidity;BME280_pressure;Samples;Min_cycle;Max_cycle;Signal;HPM_P1;HPM_P2
2023/10/11 00:01:01;;;;;;;21.75;12.25;;;18.00;77.70;;;;;;5057913;28;20028;-67
2023/10/11 00:06:04;;;;;;;24.23;12.88;;;18.00;77.70;;;;;;5057509;28;20059;-68
2023/10/11 00:08:39;;;;;;;19.70;11.17;;;17.90;77.50;;;;;;5057773;28;20071;-67
2023/10/11 00:11:07;;;;;;;27.48;12.05;;;17.90;77.50;;;;;;5057572;28;20033;-67
2023/10/11 00:13:35;;;;;;;20.02;10.68;;;17.90;77.70;;;;;;5057336;28;20017;-67
2023/10/11 00:16:09;;;;;;;22.98;11.82;;;17.80;77.60;;;;;;5056068;28;20469;-68
2023/10/11 00:18:41;;;;;;;22.58;11.65;;;17.80;77.50;;;;;;5057225;28;20035;-68
2023/10/11 00:21:11;;;;;;;17.48;10.68;;;17.90;77.50;;;;;;5057782;28;20036;-67
2023/10/11 00:23:43;;;;;;;19.48;9.43;;;17.90;77.40;;;;;;5057116;28;20358;-67
2023/10/11 00:26:09;;;;;;;14.75;8.82;;;17.90;77.30;;;;;;5057460;28;20035;-68
2023/10/11 00:28:38;;;;;;;19.67;9.77;;;17.80;77.20;;;;;;5057259;28;20023;-68
2023/10/11 00:31:12;;;;;;;18.67;9.65;;;17.90;77.10;;;;;;5056832;28;20087;-67
2023/10/11 00:33:38;;;;;;;19.70;9.40;;;17.80;77.00;;;;;;5039534;28;20029;-67
2023/10/11 00:36:08;;;;;;;20.67;8.68;;;17.80;77.00;;;;;;5057495;28;20021;-67
2023/10/11 00:38:46;;;;;;;18.80;8.35;;;17.80;76.90;;;;;;5056878;28;20016;-67
2023/10/11 00:41:15;;;;;;;14.20;7.25;;;17.80;76.90;;;;;;5041097;28;20067;-68
2023/10/11 00:43:55;;;;;;;12.65;6.65;;;17.90;76.80;;;;;;5056781;28;20049;-67
2023/10/11 00:46:22;;;;;;;12.02;6.22;;;17.90;76.60;;;;;;5057042;28;20083;-67
2023/10/11 00:48:53;;;;;;;15.13;7.18;;;17.90;76.50;;;;;;5057732;28;20040;-68
2023/10/11 00:51:29;;;;;;;14.52;6.03;;;17.90;76.40;;;;;;5056767;28;20095;-67
2023/10/11 00:54:04;;;;;;;11.13;6.03;;;18.00;76.20;;;;;;5056522;28;20443;-68
2023/10/11 00:56:33;;;;;;;13.07;6.63;;;18.00;76.10;;;;;;5056544;28;20094;-68
2023/10/11 00:59:10;;;;;;;15.45;6.35;;;18.00;76.00;;;;;;5056733;28;20025;-68
2023/10/11 01:01:39;;;;;;;14.30;6.13;;;18.10;75.80;;;;;;5056714;28;20106;-68
2023/10/11 01:04:09;;;;;;;13.13;6.65;;;18.10;75.70;;;;;;5038866;28;20083;-68
2023/10/11 01:06:35;;;;;;;14.50;6.90;;;18.10;75.80;;;;;;5056340;28;20060;-67
2023/10/11 01:09:17;;;;;;;13.50;6.50;;;18.20;76.10;;;;;;5056797;28;20119;-67
2023/10/11 01:11:45;;;;;;;16.42;7.05;;;18.40;75.50;;;;;;5056539;28;20025;-67
2023/10/11 01:14:11;;;;;;;16.38;6.78;;;18.40;75.20;;;;;;5056248;28;20021;-67
2023/10/11 01:16:37;;;;;;;13.98;6.35;;;18.40;75.00;;;;;;5056469;28;20096;-68
2023/10/11 01:19:11;;;;;;;16.45;7.05;;;18.40;74.90;;;;;;5038464;28;20444;-67
2023/10/11 01:21:38;;;;;;;12.80;6.68;;;18.30;74.80;;;;;;5056120;28;20405;-68
2023/10/11 01:24:08;;;;;;;12.57;6.35;;;18.20;74.90;;;;;;5056353;28;20021;-67
2023/10/11 01:26:37;;;;;;;12.93;5.80;;;18.10;75.00;;;;;;5055969;28;20032;-68
2023/10/11 01:29:05;;;;;;;12.90;6.07;;;18.10;75.00;;;;;;5055964;28;20082;-67
2023/10/11 01:31:35;;;;;;;15.95;6.20;;;18.00;75.00;;;;;;5038631;28;20350;-68
2023/10/11 01:34:01;;;;;;;14.88;6.20;;;18.00;75.00;;;;;;5056149;28;20096;-68
2023/10/11 01:36:27;;;;;;;16.85;6.55;;;17.90;74.90;;;;;;5056106;28;20025;-67
2023/10/11 01:39:00;;;;;;;17.42;6.70;;;17.90;74.90;;;;;;5038133;28;20025;-68
2023/10/11 01:41:28;;;;;;;18.85;6.15;;;17.90;75.00;;;;;;5055707;28;20029;-68
2023/10/11 01:43:57;;;;;;;12.00;5.97;;;17.80;75.00;;;;;;5034693;28;20054;-68
2023/10/11 01:46:27;;;;;;;13.07;5.85;;;17.80;75.00;;;;;;5036261;28;20029;-68
2023/10/11 01:49:07;;;;;;;12.52;5.80;;;17.70;75.00;;;;;;5035602;28;20036;-68
2023/10/11 01:51:39;;;;;;;17.27;5.63;;;17.70;75.10;;;;;;5035601;28;20459;-67
2023/10/11 01:54:06;;;;;;;12.20;5.47;;;17.70;75.20;;;;;;5035637;28;20037;-67
2023/10/11 01:56:32;;;;;;;14.50;6.53;;;17.60;75.20;;;;;;5035850;28;20120;-67
2023/10/11 01:59:12;;;;;;;17.15;6.38;;;17.60;75.20;;;;;;5035544;28;20029;-67
2023/10/11 02:01:38;;;;;;;11.82;6.03;;;17.60;75.20;;;;;;5035874;28;20092;-68
2023/10/11 02:04:10;;;;;;;11.80;5.55;;;17.50;75.30;;;;;;5035785;28;20057;-68
2023/10/11 02:06:38;;;;;;;11.70;5.75;;;17.50;75.40;;;;;;5035720;28;20458;-68
2023/10/11 02:09:09;;;;;;;12.77;5.72;;;17.40;75.40;;;;;;5035567;28;20358;-68
2023/10/11 02:11:36;;;;;;;13.07;5.63;;;17.40;75.50;;;;;;5035588;28;20044;-67
2023/10/11 02:14:03;;;;;;;11.57;5.55;;;17.40;75.50;;;;;;5035382;28;20362;-68
2023/10/11 02:16:32;;;;;;;13.00;5.30;;;17.40;75.50;;;;;;5035298;28;20036;-67
2023/10/11 02:18:59;;;;;;;12.35;5.45;;;17.40;75.50;;;;;;5035809;28;20029;-67
2023/10/11 02:21:30;;;;;;;10.80;5.63;;;17.40;75.60;;;;;;5035318;28;20057;-67
2023/10/11 02:23:57;;;;;;;10.50;6.00;;;17.40;75.60;;;;;;5035459;28;20144;-67
2023/10/11 02:26:39;;;;;;;12.20;5.35;;;17.30;75.60;;;;;;5035147;28;20037;-67
2023/10/11 02:29:15;;;;;;;11.98;5.55;;;17.30;75.60;;;;;;5035374;28;20072;-67
2023/10/11 02:31:49;;;;;;;13.05;5.50;;;17.30;75.60;;;;;;5035437;28;20478;-67
2023/10/11 02:34:16;;;;;;;12.85;5.60;;;17.30;75.60;;;;;;5035160;28;20404;-67
2023/10/11 02:36:43;;;;;;;16.05;6.40;;;17.20;75.70;;;;;;5035167;28;20026;-68
2023/10/11 02:39:20;;;;;;;12.70;6.45;;;17.20;75.60;;;;;;5037481;28;20048;-68
2023/10/11 02:41:49;;;;;;;11.68;5.47;;;17.20;75.70;;;;;;5039744;28;20091;-68
2023/10/11 02:44:39;;;;;;;14.52;5.95;;;17.10;75.70;;;;;;5050933;28;20474;-67
2023/10/11 02:47:06;;;;;;;11.82;5.28;;;17.10;75.70;;;;;;5059005;28;20025;-67
2023/10/11 02:49:34;;;;;;;14.65;6.63;;;17.10;75.80;;;;;;5041164;28;20025;-68
2023/10/11 02:52:13;;;;;;;13.65;6.22;;;17.10;75.80;;;;;;5058977;28;20052;-67
2023/10/11 02:54:42;;;;;;;12.35;6.00;;;17.00;75.90;;;;;;5058871;28;20332;-68
2023/10/11 02:57:20;;;;;;;11.32;6.40;;;17.00;76.00;;;;;;5059366;28;20331;-68
2023/10/11 02:59:50;;;;;;;14.25;6.18;;;17.00;76.10;;;;;;5058921;28;20089;-68
2023/10/11 03:02:16;;;;;;;14.68;6.47;;;17.00;76.00;;;;;;5042022;28;20060;-68
2023/10/11 03:04:45;;;;;;;11.25;5.65;;;17.00;76.00;;;;;;5058966;28;20063;-67
2023/10/11 03:07:21;;;;;;;16.35;6.80;;;16.90;75.90;;;;;;5058505;28;20025;-67
2023/10/11 03:09:48;;;;;;;12.75;6.22;;;16.90;76.00;;;;;;5058436;28;20060;-67
2023/10/11 03:12:38;;;;;;;11.65;6.13;;;16.80;75.90;;;;;;5059128;28;20021;-67
2023/10/11 03:15:12;;;;;;;17.42;7.70;;;16.70;75.90;;;;;;5058796;28;20029;-67
2023/10/11 03:17:41;;;;;;;12.25;6.15;;;16.70;76.10;;;;;;5058744;28;20060;-67
2023/10/11 03:22:59;;;;;;;11.18;6.05;;;16.60;76.40;;;;;;5058436;28;20043;-68
2023/10/11 03:25:29;;;;;;;11.27;6.10;;;16.60;76.20;;;;;;5058603;28;20048;-68
2023/10/11 03:27:58;;;;;;;10.88;6.25;;;16.50;76.30;;;;;;5058168;28;20025;-68
2023/10/11 03:30:33;;;;;;;12.30;6.15;;;16.50;76.50;;;;;;5058017;28;20040;-67
2023/10/11 03:33:01;;;;;;;13.88;6.28;;;16.50;76.60;;;;;;5058159;28;20025;-68
2023/10/11 03:35:34;;;;;;;12.57;5.70;;;16.50;76.60;;;;;;5058338;28;20056;-67
2023/10/11 03:38:05;;;;;;;16.08;6.75;;;16.50;76.50;;;;;;5058038;28;20057;-67
2023/10/11 03:40:34;;;;;;;12.95;6.13;;;16.50;76.50;;;;;;5057896;28;20036;-67
2023/10/11 03:43:03;;;;;;;12.60;5.72;;;16.50;76.60;;;;;;5057901;28;20037;-67
2023/10/11 03:45:34;;;;;;;11.80;6.63;;;16.50;76.60;;;;;;5036917;28;20088;-68
2023/10/11 03:48:09;;;;;;;16.20;7.17;;;16.60;76.50;;;;;;5037986;28;20451;-67
2023/10/11 03:50:47;;;;;;;10.95;5.55;;;16.50;76.60;;;;;;5037583;28;20033;-67
2023/10/11 03:53:17;;;;;;;12.10;6.20;;;16.50;76.50;;;;;;5037865;28;20470;-67
2023/10/11 03:55:49;;;;;;;11.90;5.93;;;16.50;76.70;;;;;;5038078;28;20032;-67
2023/10/11 04:03:44;;;;;;;12.00;6.10;;;16.50;76.60;;;;;;5037949;28;20087;-67
2023/10/11 04:06:13;;;;;;;16.77;6.05;;;16.40;76.70;;;;;;5038157;28;20033;-67
2023/10/11 04:08:48;;;;;;;14.38;5.65;;;16.40;76.50;;;;;;5037933;28;20104;-67
2023/10/11 04:11:30;;;;;;;11.10;5.72;;;16.40;76.60;;;;;;5037517;28;20032;-68
2023/10/11 04:13:59;;;;;;;11.32;5.68;;;16.40;76.60;;;;;;5037747;28;20100;-67
2023/10/11 04:16:27;;;;;;;12.93;6.53;;;16.40;76.60;;;;;;5037645;28;20032;-67
2023/10/11 04:19:01;;;;;;;15.20;6.90;;;16.40;76.70;;;;;;5037253;28;20021;-67
2023/10/11 04:21:39;;;;;;;12.77;6.00;;;16.30;76.60;;;;;;5037349;28;20044;-68
2023/10/11 04:24:06;;;;;;;14.18;5.95;;;16.30;76.60;;;;;;5037279;28;20520;-68
2023/10/11 04:26:35;;;;;;;15.75;6.65;;;16.20;76.50;;;;;;5053065;28;20071;-68
2023/10/11 04:29:17;;;;;;;12.90;5.82;;;16.20;76.50;;;;;;5037332;28;20052;-67
2023/10/11 04:34:38;;;;;;;12.55;5.25;;;16.20;76.60;;;;;;5017942;28;20052;-67
2023/10/11 04:37:16;;;;;;;10.00;5.75;;;16.20;76.50;;;;;;5036964;28;20113;-67
2023/10/11 04:39:52;;;;;;;16.10;5.45;;;16.20;76.60;;;;;;5036900;28;20362;-67
2023/10/11 04:42:19;;;;;;;11.40;5.10;;;16.20;76.50;;;;;;5036006;28;20131;-67
2023/10/11 04:44:54;;;;;;;11.13;5.70;;;16.20;76.50;;;;;;5049691;28;20044;-67
2023/10/11 04:47:23;;;;;;;12.20;5.18;;;16.20;76.40;;;;;;5057010;28;20044;-67
2023/10/11 04:49:52;;;;;;;14.05;6.13;;;16.20;76.40;;;;;;5056417;28;20021;-69
2023/10/11 04:52:35;;;;;;;8.63;4.80;;;16.20;76.40;;;;;;5056594;28;20049;-68
2023/10/11 04:55:12;;;;;;;13.70;6.00;;;16.20;76.50;;;;;;5056405;28;20021;-68
2023/10/11 04:58:02;;;;;;;9.52;5.20;;;16.20;77.60;;;;;;5056426;28;20039;-68
2023/10/11 05:00:31;;;;;;;13.10;5.57;;;16.50;77.00;;;;;;5055976;28;20462;-69
2023/10/11 05:03:02;;;;;;;16.60;6.10;;;16.60;76.20;;;;;;5056548;28;20028;-68
2023/10/11 05:05:28;;;;;;;16.33;6.05;;;16.70;75.90;;;;;;5056464;28;20029;-68
2023/10/11 05:08:05;;;;;;;9.60;6.07;;;16.60;75.80;;;;;;5056896;28;20079;-68
2023/10/11 05:10:43;;;;;;;13.90;6.22;;;16.60;75.90;;;;;;5056468;28;20029;-67
2023/10/11 05:13:13;;;;;;;12.48;6.25;;;16.50;75.90;;;;;;5057077;28;20103;-66
2023/10/11 05:15:43;;;;;;;13.50;5.70;;;16.50;76.00;;;;;;5056107;28;20051;-67
2023/10/11 05:18:10;;;;;;;13.02;5.88;;;16.50;76.00;;;;;;5055996;28;20033;-67
2023/10/11 05:23:11;;;;;;;11.95;6.20;;;16.50;76.20;;;;;;5056085;28;20032;-66
2023/10/11 05:25:45;;;;;;;13.32;6.65;;;16.50;76.40;;;;;;5056295;28;20017;-67
2023/10/11 05:28:27;;;;;;;14.85;6.38;;;16.50;76.50;;;;;;5056118;28;20033;-66
2023/10/11 05:31:19;;;;;;;15.20;6.60;;;16.50;76.60;;;;;;5055776;28;20037;-68
2023/10/11 05:33:59;;;;;;;13.82;6.72;;;16.40;76.60;;;;;;5056438;28;20029;-68
2023/10/11 05:52:55;;;;;;;13.63;6.78;;;16.50;77.10;;;;;;5055608;28;20040;-68
2023/10/11 05:55:30;;;;;;;15.85;6.35;;;16.50;77.10;;;;;;5055460;28;20029;-67
2023/10/11 05:57:56;;;;;;;12.40;6.63;;;16.50;76.90;;;;;;5067107;28;20025;-68
2023/10/11 06:00:26;;;;;;;12.98;6.95;;;16.50;77.00;;;;;;5071781;28;20033;-66
2023/10/11 06:02:53;;;;;;;12.45;6.70;;;16.50;77.00;;;;;;5075557;28;20465;-69
2023/10/11 06:05:23;;;;;;;16.75;7.00;;;16.60;77.00;;;;;;5074456;28;20033;-69
2023/10/11 06:08:00;;;;;;;16.17;6.80;;;16.60;77.00;;;;;;5075416;28;20454;-68
2023/10/11 06:10:41;;;;;;;14.30;6.57;;;16.70;77.00;;;;;;5075200;28;20025;-69
2023/10/11 06:13:13;;;;;;;13.02;6.65;;;16.80;77.00;;;;;;5075375;28;20452;-69
2023/10/11 06:16:00;;;;;;;15.43;7.47;;;16.90;77.00;;;;;;5075252;28;20024;-68
2023/10/11 06:18:39;;;;;;;17.25;7.57;;;17.00;76.90;;;;;;5075483;28;20031;-69
2023/10/11 06:21:18;;;;;;;14.68;7.18;;;17.20;76.80;;;;;;5075549;28;20025;-69
2023/10/11 06:23:48;;;;;;;16.15;7.15;;;17.40;76.60;;;;;;5076062;28;20104;-68
2023/10/11 06:29:03;;;;;;;11.30;5.80;;;17.80;76.10;;;;;;5075591;28;20046;-68
2023/10/11 06:31:43;;;;;;;15.00;6.55;;;18.00;75.70;;;;;;5075151;28;20032;-69
2023/10/11 06:34:26;;;;;;;12.57;5.90;;;18.30;75.30;;;;;;5075779;28;20021;-68
2023/10/11 06:36:54;;;;;;;15.32;5.72;;;18.40;74.80;;;;;;5074216;28;20048;-69
2023/10/11 06:42:21;;;;;;;16.25;5.82;;;19.00;73.40;;;;;;5074581;28;20426;-68
2023/10/11 06:44:57;;;;;;;14.45;5.75;;;19.30;72.70;;;;;;5074965;28;20091;-68
2023/10/11 06:47:25;;;;;;;14.18;5.07;;;19.50;72.30;;;;;;5075059;28;20104;-68
2023/10/11 06:49:56;;;;;;;11.90;5.40;;;19.70;72.00;;;;;;5074754;28;20112;-67
2023/10/11 06:52:30;;;;;;;12.70;5.55;;;19.90;71.50;;;;;;5074890;28;20433;-68
2023/10/11 06:55:22;;;;;;;12.25;5.82;;;20.20;71.10;;;;;;5075022;28;20033;-69
2023/10/11 06:57:51;;;;;;;12.45;5.97;;;20.40;70.70;;;;;;5074375;28;20117;-70
2023/10/11 07:03:38;;;;;;;13.30;7.43;;;20.90;70.00;;;;;;5074837;28;20032;-69
2023/10/11 07:05:56;;;;;;;18.90;7.95;;;21.10;69.60;;;;;;5072544;28;20037;-70
2023/10/11 07:08:31;;;;;;;16.10;7.75;;;21.30;69.40;;;;;;5068707;28;20446;-70
2023/10/11 07:16:19;;;;;;;14.75;7.60;;;21.80;68.60;;;;;;5074872;28;20130;-70
2023/10/11 07:18:46;;;;;;;16.73;7.70;;;21.90;67.90;;;;;;5074409;28;20066;-68
2023/10/11 07:21:15;;;;;;;20.65;8.50;;;22.10;67.70;;;;;;5056864;28;20036;-69
2023/10/11 07:28:56;;;;;;;18.95;7.65;;;22.60;67.20;;;;;;5069738;28;20028;-68
2023/10/11 07:31:33;;;;;;;12.57;6.57;;;22.80;66.70;;;;;;5063337;28;20041;-67
2023/10/11 07:34:05;;;;;;;13.57;7.07;;;22.90;66.20;;;;;;5061134;28;20028;-69
2023/10/11 07:36:32;;;;;;;13.05;7.05;;;23.00;65.60;;;;;;5071469;28;20123;-68
2023/10/11 07:39:00;;;;;;;14.32;7.40;;;23.10;65.10;;;;;;5077876;28;20095;-69
2023/10/11 07:41:29;;;;;;;14.35;7.15;;;23.20;64.70;;;;;;5077847;28;20024;-68
2023/10/11 07:44:01;;;;;;;11.82;6.35;;;23.30;64.40;;;;;;5077611;28;20045;-67
2023/10/11 07:46:30;;;;;;;13.95;6.70;;;23.40;64.40;;;;;;5077719;28;20044;-69
2023/10/11 07:49:01;;;;;;;15.48;7.78;;;23.50;64.10;;;;;;5078152;28;20049;-68
2023/10/11 07:51:42;;;;;;;14.73;7.18;;;23.60;64.00;;;;;;5074072;28;20424;-70
2023/10/11 07:54:15;;;;;;;17.58;7.32;;;23.60;63.80;;;;;;5078022;28;20100;-69
2023/10/11 07:56:43;;;;;;;16.80;6.95;;;23.70;63.40;;;;;;5077841;28;20028;-69
2023/10/11 07:59:09;;;;;;;13.38;6.55;;;23.80;63.20;;;;;;5077463;28;20086;-69
2023/10/11 08:01:45;;;;;;;14.57;6.80;;;23.90;63.10;;;;;;5077613;28;20422;-69
2023/10/11 08:04:21;;;;;;;13.35;6.50;;;23.90;62.70;;;;;;5077569;28;20422;-70
2023/10/11 08:06:51;;;;;;;13.20;6.55;;;23.90;62.90;;;;;;5058261;28;20451;-69
2023/10/11 08:09:21;;;;;;;14.50;6.90;;;23.90;62.60;;;;;;5056816;28;20040;-69
2023/10/11 08:11:54;;;;;;;17.85;7.57;;;23.90;62.10;;;;;;5056418;28;20362;-69
2023/10/11 08:14:23;;;;;;;18.60;7.30;;;23.90;61.60;;;;;;5056557;28;20055;-69
2023/10/11 08:16:49;;;;;;;16.83;8.30;;;23.90;61.20;;;;;;5056753;28;20116;-69
2023/10/11 08:19:15;;;;;;;17.17;7.53;;;23.90;60.50;;;;;;5056409;28;20040;-69
2023/10/11 08:21:47;;;;;;;12.30;7.18;;;23.80;61.00;;;;;;5056424;28;20021;-69
2023/10/11 08:24:16;;;;;;;18.70;6.80;;;23.80;61.50;;;;;;5057301;28;20043;-69
2023/10/11 08:26:44;;;;;;;13.73;7.38;;;23.80;61.80;;;;;;5057097;28;20021;-69
2023/10/11 08:29:43;;;;;;;17.27;7.80;;;23.90;61.50;;;;;;5057155;28;20039;-69
2023/10/11 08:32:11;;;;;;;17.67;7.10;;;23.90;61.50;;;;;;5052985;28;20087;-69
2023/10/11 08:34:54;;;;;;;18.70;8.35;;;23.90;61.10;;;;;;5035514;28;20052;-69
2023/10/11 08:37:20;;;;;;;16.95;7.53;;;23.90;60.90;;;;;;5034555;28;20163;-69
2023/10/11 08:39:46;;;;;;;17.80;7.82;;;24.00;61.00;;;;;;5035415;28;20386;-69
2023/10/11 08:42:14;;;;;;;17.65;9.05;;;24.00;60.70;;;;;;5035202;28;20021;-69
2023/10/11 08:44:47;;;;;;;17.48;8.85;;;24.00;59.80;;;;;;5018524;28;20390;-69
2023/10/11 08:47:16;;;;;;;16.27;8.40;;;24.00;59.30;;;;;;5035191;28;20045;-69
2023/10/11 08:49:48;;;;;;;16.75;8.07;;;24.00;58.70;;;;;;5035092;28;20045;-69
2023/10/11 08:52:28;;;;;;;17.17;7.85;;;24.00;58.60;;;;;;5018468;28;20347;-69
2023/10/11 08:54:54;;;;;;;16.63;8.20;;;24.00;58.40;;;;;;5035376;28;20060;-69
2023/10/11 08:57:23;;;;;;;17.95;8.57;;;24.00;58.20;;;;;;5034950;28;20119;-69
2023/10/11 08:59:56;;;;;;;16.33;8.25;;;24.10;58.80;;;;;;5035125;28;20034;-69
2023/10/11 09:02:29;;;;;;;16.20;7.95;;;24.20;58.80;;;;;;5034901;28;20025;-69
2023/10/11 09:05:32;;;;;;;;;;;24.20;58.50;;;;;;5036255;28;20068;-69
2023/10/11 09:08:02;;;;;;;17.08;8.63;;;24.30;55.60;;;;;;5036497;28;19904;-69
2023/10/11 09:10:33;;;;;;;18.25;8.48;;;24.30;57.40;;;;;;5036212;28;20029;-69
2023/10/11 09:13:02;;;;;;;18.52;8.57;;;24.20;57.50;;;;;;5036624;28;20112;-69
2023/10/11 09:15:44;;;;;;;21.42;8.38;;;24.20;57.80;;;;;;5036199;28;20462;-69
2023/10/11 09:18:19;;;;;;;19.13;8.20;;;24.20;57.30;;;;;;5036137;28;20380;-69
2023/10/11 09:21:09;;;;;;;21.27;8.10;;;24.20;57.80;;;;;;5036540;28;20028;-69
2023/10/11 09:23:37;;;;;;;19.58;7.60;;;24.20;57.20;;;;;;5036092;28;20032;-69
2023/10/11 09:26:08;;;;;;;15.07;7.32;;;24.20;57.80;;;;;;5036139;28;20033;-69
2023/10/11 09:28:40;;;;;;;18.48;8.18;;;24.20;57.50;;;;;;5035970;28;20060;-69
2023/10/11 09:31:21;;;;;;;17.00;8.05;;;24.20;57.10;;;;;;5036009;28;20029;-69
2023/10/11 09:33:53;;;;;;;18.00;8.32;;;24.30;57.40;;;;;;5035990;28;20435;-69
2023/10/11 09:36:28;;;;;;;20.20;8.13;;;24.30;55.50;;;;;;5036580;28;20063;-69
2023/10/11 09:38:55;;;;;;;18.42;8.25;;;24.20;56.90;;;;;;5036126;28;20052;-69
2023/10/11 09:41:38;;;;;;;21.60;9.40;;;24.30;57.10;;;;;;5035880;28;20033;-69
2023/10/11 09:44:06;;;;;;;18.30;7.53;;;24.30;56.20;;;;;;5042599;28;20045;-69
2023/10/11 09:46:34;;;;;;;18.52;8.50;;;24.30;57.20;;;;;;5055649;28;20123;-69
2023/10/11 09:49:15;;;;;;;19.63;8.43;;;24.30;56.90;;;;;;5038059;28;20450;-69
2023/10/11 09:51:44;;;;;;;19.40;8.82;;;24.40;56.70;;;;;;5056090;28;20115;-69
2023/10/11 09:54:14;;;;;;;23.27;9.50;;;24.40;56.80;;;;;;5055578;28;20387;-69
2023/10/11 09:57:13;;;;;;;17.95;8.40;;;24.40;56.00;;;;;;5055554;28;20025;-69
2023/10/11 10:00:07;;;;;;;16.83;8.43;;;24.40;56.70;;;;;;5033451;28;20063;-69
2023/10/11 10:02:39;;;;;;;19.17;8.50;;;24.40;55.80;;;;;;5038502;28;20466;-69
2023/10/11 10:05:05;;;;;;;28.15;9.90;;;24.40;56.90;;;;;;5056004;28;20342;-69
2023/10/11 10:07:44;;;;;;;19.20;9.98;;;24.50;55.90;;;;;;5038304;28;20040;-69
2023/10/11 10:10:13;;;;;;;20.80;9.18;;;24.50;56.40;;;;;;5055338;28;20105;-69
2023/10/11 10:12:59;;;;;;;19.70;9.30;;;24.40;56.70;;;;;;5055328;28;20087;-69
2023/10/11 10:15:36;;;;;;;20.95;8.52;;;24.50;55.90;;;;;;5038275;28;20346;-68
2023/10/11 10:18:06;;;;;;;20.23;9.38;;;24.50;57.00;;;;;;5055272;28;20037;-69
2023/10/11 10:20:41;;;;;;;20.75;9.02;;;24.60;56.50;;;;;;5055289;28;20075;-69
2023/10/11 10:23:16;;;;;;;18.80;9.18;;;24.60;55.90;;;;;;5055783;28;20025;-69
2023/10/11 10:25:46;;;;;;;17.70;9.30;;;24.60;56.40;;;;;;5055298;28;20047;-69
2023/10/11 10:28:37;;;;;;;18.63;9.40;;;24.60;56.10;;;;;;5055604;28;20025;-68
2023/10/11 10:31:11;;;;;;;18.15;8.05;;;24.60;55.70;;;;;;5037477;28;20033;-68
2023/10/11 10:33:38;;;;;;;15.93;7.97;;;24.70;56.60;;;;;;5055712;28;20112;-69
2023/10/11 10:36:28;;;;;;;15.80;7.82;;;24.80;56.40;;;;;;5055150;28;20021;-69
2023/10/11 10:39:00;;;;;;;18.75;7.80;;;24.90;55.20;;;;;;5054961;28;20036;-69
2023/10/11 10:41:31;;;;;;;18.50;8.32;;;24.90;55.90;;;;;;5055265;28;20116;-69
2023/10/11 10:44:12;;;;;;;19.52;7.95;;;24.90;55.00;;;;;;5034136;28;20132;-69
2023/10/11 10:46:54;;;;;;;18.05;8.18;;;24.90;55.30;;;;;;5035688;28;20339;-69
2023/10/11 10:49:47;;;;;;;26.60;10.85;;;24.90;55.90;;;;;;5050515;28;20450;-69
2023/10/11 10:52:17;;;;;;;20.55;8.40;;;25.00;54.90;;;;;;5035324;28;20030;-69
2023/10/11 10:55:05;;;;;;;17.50;8.20;;;25.00;55.30;;;;;;5035549;28;20351;-69
2023/10/11 10:57:33;;;;;;;18.55;8.88;;;24.90;54.70;;;;;;5050722;28;20018;-69
2023/10/11 11:00:00;;;;;;;18.63;9.02;;;24.90;55.30;;;;;;5036946;28;20018;-69
2023/10/11 11:02:33;;;;;;;17.95;8.40;;;24.90;55.90;;;;;;5039385;28;20022;-69
2023/10/11 11:05:15;;;;;;;21.40;8.93;;;25.00;55.50;;;;;;5039392;28;20014;-69
2023/10/11 11:07:47;;;;;;;17.45;8.77;;;25.10;55.40;;;;;;5038760;28;20443;-69
2023/10/11 11:10:21;;;;;;;18.13;8.60;;;25.20;55.80;;;;;;5037620;28;20044;-68
2023/10/11 11:12:50;;;;;;;18.85;8.07;;;25.20;55.10;;;;;;5038924;28;20029;-69
2023/10/11 11:15:23;;;;;;;19.02;8.63;;;25.20;55.70;;;;;;5039169;28;20082;-69
2023/10/11 11:17:50;;;;;;;21.13;9.25;;;25.20;54.60;;;;;;5038892;28;20105;-69
2023/10/11 11:20:51;;;;;;;24.52;9.93;;;25.00;55.10;;;;;;5038738;28;20115;-69
2023/10/11 11:23:27;;;;;;;17.00;8.43;;;25.00;54.90;;;;;;5038660;28;20061;-69
2023/10/11 11:25:53;;;;;;;;;;;25.00;55.40;;;;;;5038810;28;20067;-69
2023/10/11 11:28:24;;;;;;;20.58;9.20;;;25.10;53.90;;;;;;5038348;28;19998;-69
2023/10/11 11:31:40;;;;;;;20.83;10.13;;;25.10;54.80;;;;;;5038561;28;20060;-69
2023/10/11 11:33:49;;;;;;;20.35;10.57;;;25.00;54.40;;;;;;5032581;28;20065;-69
2023/10/11 11:36:40;;;;;;;18.60;8.57;;;25.00;54.00;;;;;;5038203;28;20460;-69
2023/10/11 11:39:36;;;;;;;19.83;8.77;;;25.10;54.60;;;;;;5038420;28;20458;-69
2023/10/11 11:42:24;;;;;;;19.13;9.60;;;25.10;53.90;;;;;;5038431;28;20074;-69
2023/10/11 11:44:55;;;;;;;18.02;9.13;;;25.10;53.60;;;;;;5050557;28;20052;-69
2023/10/11 11:47:21;;;;;;;18.45;8.23;;;25.30;54.20;;;;;;5024499;28;20029;-69
2023/10/11 11:49:50;;;;;;;20.05;8.50;;;25.40;54.10;;;;;;5057702;28;20453;-69
2023/10/11 11:52:18;;;;;;;19.02;8.43;;;25.40;53.80;;;;;;5058434;28;20415;-69
2023/10/11 11:54:47;;;;;;;18.15;9.70;;;25.40;53.60;;;;;;5058070;28;20017;-69
2023/10/11 11:57:13;;;;;;;20.80;10.15;;;25.50;52.70;;;;;;5058300;28;20150;-69
2023/10/11 11:59:44;;;;;;;17.42;7.78;;;25.50;51.60;;;;;;5057677;28;20009;-69
2023/10/11 12:02:16;;;;;;;17.02;8.40;;;25.50;52.90;;;;;;5058371;28;20118;-69
2023/10/11 12:04:48;;;;;;;19.27;8.50;;;25.60;52.90;;;;;;5040178;28;20094;-69
2023/10/11 12:07:13;;;;;;;15.15;7.32;;;25.60;52.70;;;;;;5058140;28;20025;-69
2023/10/11 12:09:42;;;;;;;16.38;7.75;;;25.60;53.30;;;;;;5040010;28;20349;-69
2023/10/11 12:12:09;;;;;;;19.75;7.70;;;25.70;53.10;;;;;;5057888;28;20052;-69
2023/10/11 12:14:38;;;;;;;20.13;8.38;;;25.70;52.90;;;;;;5057715;28;20025;-69
2023/10/11 12:17:11;;;;;;;17.33;8.48;;;25.70;53.00;;;;;;5057332;28;20471;-69
2023/10/11 12:19:40;;;;;;;17.70;7.20;;;25.70;52.90;;;;;;5057334;28;20468;-69
2023/10/11 12:22:14;;;;;;;17.77;8.68;;;25.60;53.50;;;;;;5057348;28;20075;-69
2023/10/11 12:24:59;;;;;;;23.90;8.90;;;25.60;52.50;;;;;;5055611;28;20025;-68
2023/10/11 12:27:26;;;;;;;18.02;8.68;;;25.50;53.40;;;;;;5057230;28;20143;-69
2023/10/11 12:29:54;;;;;;;18.38;8.40;;;25.50;53.70;;;;;;5056954;28;20350;-69
2023/10/11 12:32:24;;;;;;;15.77;8.55;;;25.50;53.80;;;;;;5057122;28;20028;-69
2023/10/11 12:34:52;;;;;;;17.63;8.20;;;25.50;53.50;;;;;;5057127;28;20027;-68
2023/10/11 12:37:18;;;;;;;15.88;8.07;;;25.40;53.50;;;;;;5057085;28;20025;-69
2023/10/11 12:39:44;;;;;;;18.05;8.73;;;25.50;53.60;;;;;;5056923;28;20017;-69
2023/10/11 12:42:11;;;;;;;18.08;8.38;;;25.50;53.10;;;;;;5057229;28;20484;-69
2023/10/11 12:44:41;;;;;;;19.98;8.45;;;25.70;53.00;;;;;;5056705;28;20041;-69
2023/10/11 12:47:11;;;;;;;16.60;7.72;;;25.80;52.70;;;;;;5056820;28;20103;-69
2023/10/11 12:52:07;;;;;;;20.58;7.95;;;25.90;52.60;;;;;;5057296;28;20025;-69
2023/10/11 12:54:36;;;;;;;20.52;8.38;;;25.90;52.70;;;;;;5056631;28;20044;-69
2023/10/11 12:57:07;;;;;;;20.08;8.32;;;25.80;52.10;;;;;;5057223;28;20108;-69
2023/10/11 12:59:35;;;;;;;19.50;9.50;;;25.70;52.70;;;;;;5056799;28;20346;-69
2023/10/11 13:02:04;;;;;;;19.05;8.40;;;25.60;52.30;;;;;;5056476;28;20468;-69
2023/10/11 13:04:30;;;;;;;19.52;8.23;;;25.60;53.00;;;;;;5039774;28;20025;-69
2023/10/11 13:06:59;;;;;;;13.98;7.65;;;25.60;53.20;;;;;;5056456;28;20396;-69
2023/10/11 13:09:35;;;;;;;17.67;8.48;;;25.60;53.20;;;;;;5056487;28;20032;-69
2023/10/11 13:12:05;;;;;;;15.45;7.78;;;25.60;53.20;;;;;;5056238;28;20079;-69
2023/10/11 13:14:33;;;;;;;19.05;7.57;;;25.60;53.40;;;;;;5056538;28;20123;-69
2023/10/11 13:17:08;;;;;;;16.73;7.72;;;25.60;53.40;;;;;;5038631;28;20446;-69
2023/10/11 13:19:43;;;;;;;17.88;8.77;;;25.60;53.60;;;;;;5056017;28;20021;-69
2023/10/11 13:22:12;;;;;;;20.77;8.80;;;25.50;53.40;;;;;;5055624;28;20044;-69
2023/10/11 13:24:39;;;;;;;17.88;8.50;;;25.50;53.90;;;;;;5056072;28;20410;-69
2023/10/11 13:27:07;;;;;;;18.98;8.48;;;25.50;54.20;;;;;;5055985;28;20083;-69
2023/10/11 13:29:39;;;;;;;17.67;8.32;;;25.50;54.40;;;;;;5055920;28;20068;-69
2023/10/11 13:32:08;;;;;;;17.38;8.05;;;25.50;54.40;;;;;;5055901;28;20122;-69
2023/10/11 13:34:42;;;;;;;13.18;7.43;;;25.50;54.60;;;;;;5055750;28;20335;-69
2023/10/11 13:37:11;;;;;;;18.60;8.25;;;25.50;54.70;;;;;;5055802;28;20024;-69
2023/10/11 13:39:46;;;;;;;17.92;8.98;;;25.70;54.40;;;;;;5055974;28;20108;-69
2023/10/11 13:42:16;;;;;;;15.32;8.32;;;25.90;54.20;;;;;;5055819;28;20040;-69
2023/10/11 13:44:43;;;;;;;15.45;7.80;;;25.90;53.70;;;;;;5055600;28;20040;-69
2023/10/11 13:47:13;;;;;;;17.08;9.32;;;26.00;53.50;;;;;;5055642;28;20509;-69
2023/10/11 13:49:42;;;;;;;14.60;8.25;;;26.00;53.30;;;;;;5055505;28;20056;-69
2023/10/11 13:52:12;;;;;;;17.25;8.85;;;25.90;53.40;;;;;;5055678;28;20385;-69
2023/10/11 13:54:42;;;;;;;17.48;8.27;;;25.90;53.60;;;;;;5055463;28;20040;-69
2023/10/11 13:57:18;;;;;;;17.58;8.30;;;25.70;53.50;;;;;;5055568;28;20454;-69
2023/10/11 13:59:48;;;;;;;17.40;7.28;;;25.70;53.40;;;;;;5055757;28;20025;-69